sensor_id;sensor_type;location;lat;lon;timestamp;temperature;humidity
16929;DHT22;8581;47.334;11.190;2022-08-01T00:00:56;15.40;99.90
16929;DHT22;8581;47.334;11.190;2022-08-01T00:03:27;15.60;99.90
16929;DHT22;8581;47.334;11.190;2022-08-01T00:05:59;15.70;99.90
16929;DHT22;8581;47.334;11.190;2022-08-01T00:08:30;15.70;99.90
16929;DHT22;8581;47.334;11.190;2022-08-01T00:11:02;15.60;99.90
16929;DHT22;8581;47.334;11.190;2022-08-01T00:13:34;15.60;99.90
16929;DHT22;8581;47.334;11.190;2022-08-01T00:16:05;15.50;99.90
16929;DHT22;8581;47.334;11.190;2022-08-01T00:18:37;15.50;99.90
16929;DHT22;8581;47.334;11.190;2022-08-01T00:21:08;15.50;99.90
16929;DHT22;8581;47.334;11.190;2022-08-01T00:23:40;15.50;99.90
16929;DHT22;8581;47.334;11.190;2022-08-01T00:26:13;15.40;99.90
16929;DHT22;8581;47.334;11.190;2022-08-01T00:28:45;15.40;99.90
16929;DHT22;8581;47.334;11.190;2022-08-01T00:31:16;15.40;99.90
16929;DHT22;8581;47.334;11.190;2022-08-01T00:33:48;15.50;99.90
16929;DHT22;8581;47.334;11.190;2022-08-01T00:36:20;15.40;99.90
16929;DHT22;8581;47.334;11.190;2022-08-01T00:38:51;15.40;99.90
16929;DHT22;8581;47.334;11.190;2022-08-01T00:41:23;15.40;99.90
16929;DHT22;8581;47.334;11.190;2022-08-01T00:43:54;15.30;99.90
16929;DHT22;8581;47.334;11.190;2022-08-01T00:46:26;15.20;99.90
16929;DHT22;8581;47.334;11.190;2022-08-01T00:48:59;15.20;99.90
16929;DHT22;8581;47.334;11.190;2022-08-01T00:51:29;15.10;99.90
16929;DHT22;8581;47.334;11.190;2022-08-01T00:54:01;15.10;99.90
16929;DHT22;8581;47.334;11.190;2022-08-01T00:56:33;15.10;99.90
16929;DHT22;8581;47.334;11.190;2022-08-01T00:59:04;15.10;99.90
16929;DHT22;8581;47.334;11.190;2022-08-01T01:01:36;15.30;99.90
16929;DHT22;8581;47.334;11.190;2022-08-01T01:04:07;15.20;99.90
16929;DHT22;8581;47.334;11.190;2022-08-01T01:07:05;15.10;99.90
16929;DHT22;8581;47.334;11.190;2022-08-01T01:09:52;15.10;99.90
16929;DHT22;8581;47.334;11.190;2022-08-01T01:12:34;15.10;99.90
16929;DHT22;8581;47.334;11.190;2022-08-01T01:15:10;15.00;99.90
16929;DHT22;8581;47.334;11.190;2022-08-01T01:20:31;15.00;99.90
16929;DHT22;8581;47.334;11.190;2022-08-01T01:23:10;15.10;99.90
16929;DHT22;8581;47.334;11.190;2022-08-01T01:25:46;15.20;99.90
16929;DHT22;8581;47.334;11.190;2022-08-01T01:28:29;15.30;99.90
16929;DHT22;8581;47.334;11.190;2022-08-01T01:30:58;15.20;99.90
16929;DHT22;8581;47.334;11.190;2022-08-01T01:33:30;15.10;99.90
16929;DHT22;8581;47.334;11.190;2022-08-01T01:36:03;15.10;99.90
16929;DHT22;8581;47.334;11.190;2022-08-01T01:38:36;15.10;99.90
16929;DHT22;8581;47.334;11.190;2022-08-01T01:41:06;15.10;99.90
16929;DHT22;8581;47.334;11.190;2022-08-01T01:43:38;15.20;99.90
16929;DHT22;8581;47.334;11.190;2022-08-01T01:46:11;15.20;99.90
16929;DHT22;8581;47.334;11.190;2022-08-01T01:48:41;15.10;99.90
16929;DHT22;8581;47.334;11.190;2022-08-01T01:51:13;15.10;99.90
16929;DHT22;8581;47.334;11.190;2022-08-01T01:53:45;15.10;99.90
16929;DHT22;8581;47.334;11.190;2022-08-01T01:56:16;15.00;99.90
16929;DHT22;8581;47.334;11.190;2022-08-01T01:58:51;15.00;99.90
16929;DHT22;8581;47.334;11.190;2022-08-01T02:01:21;14.80;99.90
16929;DHT22;8581;47.334;11.190;2022-08-01T02:03:53;14.80;99.90
16929;DHT22;8581;47.334;11.190;2022-08-01T02:06:25;14.70;99.90
16929;DHT22;8581;47.334;11.190;2022-08-01T02:08:56;14.70;99.90
16929;DHT22;8581;47.334;11.190;2022-08-01T02:11:28;14.60;99.90
16929;DHT22;8581;47.334;11.190;2022-08-01T02:14:01;14.60;99.90
16929;DHT22;8581;47.334;11.190;2022-08-01T02:16:33;14.60;99.90
16929;DHT22;8581;47.334;11.190;2022-08-01T02:19:03;14.50;99.90
16929;DHT22;8581;47.334;11.190;2022-08-01T02:21:48;14.60;99.90
16929;DHT22;8581;47.334;11.190;2022-08-01T02:24:24;14.50;99.90
16929;DHT22;8581;47.334;11.190;2022-08-01T02:26:53;14.50;99.90
16929;DHT22;8581;47.334;11.190;2022-08-01T02:29:27;14.60;99.90
16929;DHT22;8581;47.334;11.190;2022-08-01T02:31:58;14.50;99.90
16929;DHT22;8581;47.334;11.190;2022-08-01T02:34:30;14.40;99.90
16929;DHT22;8581;47.334;11.190;2022-08-01T02:37:02;14.30;99.90
16929;DHT22;8581;47.334;11.190;2022-08-01T02:39:34;14.30;99.90
16929;DHT22;8581;47.334;11.190;2022-08-01T02:42:06;14.30;99.90
16929;DHT22;8581;47.334;11.190;2022-08-01T02:44:37;14.30;99.90
16929;DHT22;8581;47.334;11.190;2022-08-01T02:47:09;14.40;99.90
16929;DHT22;8581;47.334;11.190;2022-08-01T02:49:42;14.50;99.90
16929;DHT22;8581;47.334;11.190;2022-08-01T02:52:13;14.60;99.90
16929;DHT22;8581;47.334;11.190;2022-08-01T02:54:44;14.70;99.90
16929;DHT22;8581;47.334;11.190;2022-08-01T02:57:16;14.70;99.90
16929;DHT22;8581;47.334;11.190;2022-08-01T02:59:47;14.60;99.90
16929;DHT22;8581;47.334;11.190;2022-08-01T03:02:18;14.60;99.90
16929;DHT22;8581;47.334;11.190;2022-08-01T03:04:50;14.70;99.90
16929;DHT22;8581;47.334;11.190;2022-08-01T03:07:22;14.70;99.90
16929;DHT22;8581;47.334;11.190;2022-08-01T03:09:53;14.60;99.90
16929;DHT22;8581;47.334;11.190;2022-08-01T03:12:26;14.40;99.90
16929;DHT22;8581;47.334;11.190;2022-08-01T03:14:56;14.40;99.90
16929;DHT22;8581;47.334;11.190;2022-08-01T03:17:28;14.60;99.90
16929;DHT22;8581;47.334;11.190;2022-08-01T03:20:00;14.60;99.90
16929;DHT22;8581;47.334;11.190;2022-08-01T03:22:31;14.70;99.90
16929;DHT22;8581;47.334;11.190;2022-08-01T03:25:03;14.70;99.90
16929;DHT22;8581;47.334;11.190;2022-08-01T03:27:36;14.70;99.90
16929;DHT22;8581;47.334;11.190;2022-08-01T03:30:07;14.60;99.90
16929;DHT22;8581;47.334;11.190;2022-08-01T03:32:40;14.60;99.90
16929;DHT22;8581;47.334;11.190;2022-08-01T03:35:11;14.60;99.90
16929;DHT22;8581;47.334;11.190;2022-08-01T03:37:45;14.50;99.90
16929;DHT22;8581;47.334;11.190;2022-08-01T03:40:19;14.60;99.90
16929;DHT22;8581;47.334;11.190;2022-08-01T03:42:50;14.60;99.90
16929;DHT22;8581;47.334;11.190;2022-08-01T03:45:25;14.60;99.90
16929;DHT22;8581;47.334;11.190;2022-08-01T03:47:58;14.60;99.90
16929;DHT22;8581;47.334;11.190;2022-08-01T03:50:27;14.60;99.90
16929;DHT22;8581;47.334;11.190;2022-08-01T03:52:59;14.70;99.90
16929;DHT22;8581;47.334;11.190;2022-08-01T03:55:30;14.50;99.90
16929;DHT22;8581;47.334;11.190;2022-08-01T03:58:02;14.40;99.90
16929;DHT22;8581;47.334;11.190;2022-08-01T04:00:33;14.30;99.90
16929;DHT22;8581;47.334;11.190;2022-08-01T04:03:06;14.40;99.90
16929;DHT22;8581;47.334;11.190;2022-08-01T04:05:37;14.50;99.90
16929;DHT22;8581;47.334;11.190;2022-08-01T04:08:08;14.40;99.90
16929;DHT22;8581;47.334;11.190;2022-08-01T04:10:40;14.40;99.90
16929;DHT22;8581;47.334;11.190;2022-08-01T04:13:11;14.30;99.90
16929;DHT22;8581;47.334;11.190;2022-08-01T04:15:43;14.30;99.90
16929;DHT22;8581;47.334;11.190;2022-08-01T04:18:15;14.40;99.90
16929;DHT22;8581;47.334;11.190;2022-08-01T04:20:46;14.40;99.90
16929;DHT22;8581;47.334;11.190;2022-08-01T04:23:19;14.40;99.90
16929;DHT22;8581;47.334;11.190;2022-08-01T04:25:50;14.40;99.90
16929;DHT22;8581;47.334;11.190;2022-08-01T04:28:21;14.50;99.90
16929;DHT22;8581;47.334;11.190;2022-08-01T04:30:54;14.70;99.90
16929;DHT22;8581;47.334;11.190;2022-08-01T04:33:24;14.70;99.90
16929;DHT22;8581;47.334;11.190;2022-08-01T04:35:56;14.70;99.90
16929;DHT22;8581;47.334;11.190;2022-08-01T04:38:27;14.80;99.90
16929;DHT22;8581;47.334;11.190;2022-08-01T04:40:59;14.80;99.90
16929;DHT22;8581;47.334;11.190;2022-08-01T04:43:30;14.90;99.90
16929;DHT22;8581;47.334;11.190;2022-08-01T04:46:02;14.80;99.90
16929;DHT22;8581;47.334;11.190;2022-08-01T04:48:37;14.90;99.90
16929;DHT22;8581;47.334;11.190;2022-08-01T04:51:14;14.90;99.90
16929;DHT22;8581;47.334;11.190;2022-08-01T04:53:46;15.10;99.90
16929;DHT22;8581;47.334;11.190;2022-08-01T04:56:19;15.30;99.90
16929;DHT22;8581;47.334;11.190;2022-08-01T04:58:50;15.20;99.90
16929;DHT22;8581;47.334;11.190;2022-08-01T05:01:22;15.10;99.90
16929;DHT22;8581;47.334;11.190;2022-08-01T05:03:53;15.00;99.90
16929;DHT22;8581;47.334;11.190;2022-08-01T05:06:25;15.10;99.90
16929;DHT22;8581;47.334;11.190;2022-08-01T05:08:57;15.00;99.90
16929;DHT22;8581;47.334;11.190;2022-08-01T05:11:29;14.90;99.90
16929;DHT22;8581;47.334;11.190;2022-08-01T05:14:00;14.90;99.90
16929;DHT22;8581;47.334;11.190;2022-08-01T05:16:32;15.20;99.90
16929;DHT22;8581;47.334;11.190;2022-08-01T05:19:03;15.60;99.90
16929;DHT22;8581;47.334;11.190;2022-08-01T05:21:36;15.50;99.90
16929;DHT22;8581;47.334;11.190;2022-08-01T05:24:07;15.60;99.90
16929;DHT22;8581;47.334;11.190;2022-08-01T05:26:39;15.60;99.90
16929;DHT22;8581;47.334;11.190;2022-08-01T05:29:10;15.30;99.90
16929;DHT22;8581;47.334;11.190;2022-08-01T05:31:42;15.10;99.90
16929;DHT22;8581;47.334;11.190;2022-08-01T05:34:14;15.20;99.90
16929;DHT22;8581;47.334;11.190;2022-08-01T05:36:46;15.30;99.90
16929;DHT22;8581;47.334;11.190;2022-08-01T05:39:17;15.40;99.90
16929;DHT22;8581;47.334;11.190;2022-08-01T05:41:49;15.40;99.90
16929;DHT22;8581;47.334;11.190;2022-08-01T05:44:20;15.50;99.90
16929;DHT22;8581;47.334;11.190;2022-08-01T05:46:52;15.50;99.90
16929;DHT22;8581;47.334;11.190;2022-08-01T05:49:24;15.40;99.90
16929;DHT22;8581;47.334;11.190;2022-08-01T05:51:55;15.50;99.90
16929;DHT22;8581;47.334;11.190;2022-08-01T05:54:27;15.70;99.90
16929;DHT22;8581;47.334;11.190;2022-08-01T05:56:58;16.10;99.90
16929;DHT22;8581;47.334;11.190;2022-08-01T05:59:31;16.40;99.90
16929;DHT22;8581;47.334;11.190;2022-08-01T06:02:02;16.60;99.90
16929;DHT22;8581;47.334;11.190;2022-08-01T06:04:34;16.90;99.90
16929;DHT22;8581;47.334;11.190;2022-08-01T06:07:06;17.10;99.90
16929;DHT22;8581;47.334;11.190;2022-08-01T06:09:37;17.40;99.90
16929;DHT22;8581;47.334;11.190;2022-08-01T06:12:09;17.10;99.90
16929;DHT22;8581;47.334;11.190;2022-08-01T06:14:41;16.80;99.90
16929;DHT22;8581;47.334;11.190;2022-08-01T06:17:13;16.80;99.90
16929;DHT22;8581;47.334;11.190;2022-08-01T06:19:45;17.10;99.90
16929;DHT22;8581;47.334;11.190;2022-08-01T06:22:16;16.90;99.90
16929;DHT22;8581;47.334;11.190;2022-08-01T06:24:48;16.60;99.90
16929;DHT22;8581;47.334;11.190;2022-08-01T06:27:19;16.30;99.90
16929;DHT22;8581;47.334;11.190;2022-08-01T06:29:51;16.10;99.90
16929;DHT22;8581;47.334;11.190;2022-08-01T06:32:25;16.20;99.90
16929;DHT22;8581;47.334;11.190;2022-08-01T06:34:57;16.30;99.90
16929;DHT22;8581;47.334;11.190;2022-08-01T06:37:29;16.30;99.90
16929;DHT22;8581;47.334;11.190;2022-08-01T06:40:02;16.30;99.90
16929;DHT22;8581;47.334;11.190;2022-08-01T06:42:35;16.40;99.90
16929;DHT22;8581;47.334;11.190;2022-08-01T06:45:08;16.40;99.90
16929;DHT22;8581;47.334;11.190;2022-08-01T06:47:42;16.70;99.90
16929;DHT22;8581;47.334;11.190;2022-08-01T06:50:13;16.60;99.90
16929;DHT22;8581;47.334;11.190;2022-08-01T06:52:45;16.90;99.90
16929;DHT22;8581;47.334;11.190;2022-08-01T06:55:17;17.10;99.90
16929;DHT22;8581;47.334;11.190;2022-08-01T06:57:49;17.20;99.90
16929;DHT22;8581;47.334;11.190;2022-08-01T07:00:21;17.50;99.90
16929;DHT22;8581;47.334;11.190;2022-08-01T07:02:53;17.70;99.90
16929;DHT22;8581;47.334;11.190;2022-08-01T07:05:24;17.90;99.90
16929;DHT22;8581;47.334;11.190;2022-08-01T07:07:55;18.10;99.90
16929;DHT22;8581;47.334;11.190;2022-08-01T07:10:27;18.30;99.90
16929;DHT22;8581;47.334;11.190;2022-08-01T07:12:59;18.50;99.90
16929;DHT22;8581;47.334;11.190;2022-08-01T07:15:31;18.70;99.90
16929;DHT22;8581;47.334;11.190;2022-08-01T07:18:02;18.70;99.90
16929;DHT22;8581;47.334;11.190;2022-08-01T07:20:34;18.80;99.90
16929;DHT22;8581;47.334;11.190;2022-08-01T07:23:05;18.50;99.90
16929;DHT22;8581;47.334;11.190;2022-08-01T07:25:37;18.20;99.90
16929;DHT22;8581;47.334;11.190;2022-08-01T07:28:09;18.40;99.90
16929;DHT22;8581;47.334;11.190;2022-08-01T07:30:40;18.70;99.90
16929;DHT22;8581;47.334;11.190;2022-08-01T07:33:12;19.10;99.90
16929;DHT22;8581;47.334;11.190;2022-08-01T07:35:43;19.50;99.90
16929;DHT22;8581;47.334;11.190;2022-08-01T07:38:16;19.50;99.90
16929;DHT22;8581;47.334;11.190;2022-08-01T07:40:48;19.40;99.90
16929;DHT22;8581;47.334;11.190;2022-08-01T07:43:19;19.70;99.90
16929;DHT22;8581;47.334;11.190;2022-08-01T07:45:51;19.90;99.90
16929;DHT22;8581;47.334;11.190;2022-08-01T07:48:22;20.00;99.90
16929;DHT22;8581;47.334;11.190;2022-08-01T07:50:54;20.10;99.90
16929;DHT22;8581;47.334;11.190;2022-08-01T07:53:26;20.30;99.90
16929;DHT22;8581;47.334;11.190;2022-08-01T07:55:57;20.50;99.90
16929;DHT22;8581;47.334;11.190;2022-08-01T07:58:29;20.60;99.90
16929;DHT22;8581;47.334;11.190;2022-08-01T08:01:01;20.60;99.90
16929;DHT22;8581;47.334;11.190;2022-08-01T08:03:32;20.70;99.90
16929;DHT22;8581;47.334;11.190;2022-08-01T08:06:04;20.80;99.90
16929;DHT22;8581;47.334;11.190;2022-08-01T08:08:36;21.00;99.90
16929;DHT22;8581;47.334;11.190;2022-08-01T08:11:07;21.00;99.90
16929;DHT22;8581;47.334;11.190;2022-08-01T08:13:39;21.10;99.90
16929;DHT22;8581;47.334;11.190;2022-08-01T08:16:11;21.20;99.90
16929;DHT22;8581;47.334;11.190;2022-08-01T08:18:42;21.40;99.90
16929;DHT22;8581;47.334;11.190;2022-08-01T08:21:14;21.70;99.90
16929;DHT22;8581;47.334;11.190;2022-08-01T08:23:45;21.70;99.90
16929;DHT22;8581;47.334;11.190;2022-08-01T08:26:23;21.50;99.90
16929;DHT22;8581;47.334;11.190;2022-08-01T08:28:54;21.60;99.90
16929;DHT22;8581;47.334;11.190;2022-08-01T08:31:32;21.70;99.90
16929;DHT22;8581;47.334;11.190;2022-08-01T08:34:04;21.80;99.90
16929;DHT22;8581;47.334;11.190;2022-08-01T08:36:35;22.20;99.90
16929;DHT22;8581;47.334;11.190;2022-08-01T08:39:07;22.70;99.90
16929;DHT22;8581;47.334;11.190;2022-08-01T08:41:39;23.10;99.90
16929;DHT22;8581;47.334;11.190;2022-08-01T08:44:10;23.40;99.90
16929;DHT22;8581;47.334;11.190;2022-08-01T08:46:44;22.80;99.90
16929;DHT22;8581;47.334;11.190;2022-08-01T08:49:16;22.50;99.90
16929;DHT22;8581;47.334;11.190;2022-08-01T08:51:49;22.50;99.90
16929;DHT22;8581;47.334;11.190;2022-08-01T08:54:21;22.30;99.90
16929;DHT22;8581;47.334;11.190;2022-08-01T08:56:52;22.30;99.90
16929;DHT22;8581;47.334;11.190;2022-08-01T08:59:23;22.20;99.90
16929;DHT22;8581;47.334;11.190;2022-08-01T09:01:55;22.10;99.90
16929;DHT22;8581;47.334;11.190;2022-08-01T09:04:27;21.80;99.90
16929;DHT22;8581;47.334;11.190;2022-08-01T09:06:58;21.70;99.90
16929;DHT22;8581;47.334;11.190;2022-08-01T09:09:30;21.90;99.90
16929;DHT22;8581;47.334;11.190;2022-08-01T09:12:01;22.30;99.90
16929;DHT22;8581;47.334;11.190;2022-08-01T09:14:33;22.80;99.90
16929;DHT22;8581;47.334;11.190;2022-08-01T09:17:05;23.20;99.90
16929;DHT22;8581;47.334;11.190;2022-08-01T09:19:41;23.70;99.90
16929;DHT22;8581;47.334;11.190;2022-08-01T09:22:13;23.90;99.90
16929;DHT22;8581;47.334;11.190;2022-08-01T09:25:15;24.20;99.90
16929;DHT22;8581;47.334;11.190;2022-08-01T09:27:30;24.40;99.90
16929;DHT22;8581;47.334;11.190;2022-08-01T09:30:11;24.60;99.90
16929;DHT22;8581;47.334;11.190;2022-08-01T09:32:59;24.50;99.90
16929;DHT22;8581;47.334;11.190;2022-08-01T09:35:30;23.40;99.90
16929;DHT22;8581;47.334;11.190;2022-08-01T09:38:13;22.80;99.90
16929;DHT22;8581;47.334;11.190;2022-08-01T09:41:00;22.20;99.90
16929;DHT22;8581;47.334;11.190;2022-08-01T09:43:32;22.20;99.90
16929;DHT22;8581;47.334;11.190;2022-08-01T09:46:05;22.70;99.90
16929;DHT22;8581;47.334;11.190;2022-08-01T09:48:36;23.50;99.90
16929;DHT22;8581;47.334;11.190;2022-08-01T09:51:08;24.80;99.90
16929;DHT22;8581;47.334;11.190;2022-08-01T09:53:43;26.10;99.90
16929;DHT22;8581;47.334;11.190;2022-08-01T09:56:13;26.90;99.90
16929;DHT22;8581;47.334;11.190;2022-08-01T09:58:54;27.90;99.90
16929;DHT22;8581;47.334;11.190;2022-08-01T10:01:24;28.40;99.90
16929;DHT22;8581;47.334;11.190;2022-08-01T10:04:15;29.60;99.90
16929;DHT22;8581;47.334;11.190;2022-08-01T10:06:48;30.00;97.10
16929;DHT22;8581;47.334;11.190;2022-08-01T10:09:26;29.20;95.30
16929;DHT22;8581;47.334;11.190;2022-08-01T10:11:57;27.80;97.70
16929;DHT22;8581;47.334;11.190;2022-08-01T10:14:29;27.50;98.30
16929;DHT22;8581;47.334;11.190;2022-08-01T10:17:00;27.10;98.10
16929;DHT22;8581;47.334;11.190;2022-08-01T10:19:32;27.70;99.90
16929;DHT22;8581;47.334;11.190;2022-08-01T10:22:04;29.10;99.30
16929;DHT22;8581;47.334;11.190;2022-08-01T10:24:37;29.80;99.10
16929;DHT22;8581;47.334;11.190;2022-08-01T10:27:09;28.40;97.30
16929;DHT22;8581;47.334;11.190;2022-08-01T10:29:46;28.00;96.20
16929;DHT22;8581;47.334;11.190;2022-08-01T10:32:14;27.70;96.40
16929;DHT22;8581;47.334;11.190;2022-08-01T10:34:46;27.90;95.50
16929;DHT22;8581;47.334;11.190;2022-08-01T10:37:17;28.90;97.20
16929;DHT22;8581;47.334;11.190;2022-08-01T10:39:50;30.00;92.90
16929;DHT22;8581;47.334;11.190;2022-08-01T10:42:21;30.40;91.10
16929;DHT22;8581;47.334;11.190;2022-08-01T10:44:52;31.80;86.70
16929;DHT22;8581;47.334;11.190;2022-08-01T10:47:25;33.00;86.80
16929;DHT22;8581;47.334;11.190;2022-08-01T10:49:59;32.70;88.10
16929;DHT22;8581;47.334;11.190;2022-08-01T10:52:28;32.90;78.70
16929;DHT22;8581;47.334;11.190;2022-08-01T10:55:03;31.50;79.80
16929;DHT22;8581;47.334;11.190;2022-08-01T10:57:49;30.80;88.40
16929;DHT22;8581;47.334;11.190;2022-08-01T11:00:21;29.80;89.10
16929;DHT22;8581;47.334;11.190;2022-08-01T11:02:57;28.30;89.70
16929;DHT22;8581;47.334;11.190;2022-08-01T11:05:30;28.60;92.10
16929;DHT22;8581;47.334;11.190;2022-08-01T11:08:02;27.90;91.40
16929;DHT22;8581;47.334;11.190;2022-08-01T11:10:37;27.90;90.90
16929;DHT22;8581;47.334;11.190;2022-08-01T11:13:08;28.30;90.30
16929;DHT22;8581;47.334;11.190;2022-08-01T11:15:40;29.90;92.40
16929;DHT22;8581;47.334;11.190;2022-08-01T11:20:56;33.10;90.00
16929;DHT22;8581;47.334;11.190;2022-08-01T11:23:28;34.40;83.60
16929;DHT22;8581;47.334;11.190;2022-08-01T11:26:08;34.10;84.20
16929;DHT22;8581;47.334;11.190;2022-08-01T11:28:39;31.80;88.10
16929;DHT22;8581;47.334;11.190;2022-08-01T11:31:27;30.80;87.70
16929;DHT22;8581;47.334;11.190;2022-08-01T11:33:59;29.60;89.30
16929;DHT22;8581;47.334;11.190;2022-08-01T11:36:30;28.10;90.30
16929;DHT22;8581;47.334;11.190;2022-08-01T11:39:12;27.60;92.30
16929;DHT22;8581;47.334;11.190;2022-08-01T11:41:44;27.00;93.00
16929;DHT22;8581;47.334;11.190;2022-08-01T11:44:19;26.70;94.40
16929;DHT22;8581;47.334;11.190;2022-08-01T11:46:58;26.40;95.00
16929;DHT22;8581;47.334;11.190;2022-08-01T11:49:44;26.30;94.90
16929;DHT22;8581;47.334;11.190;2022-08-01T11:52:22;26.60;96.10
16929;DHT22;8581;47.334;11.190;2022-08-01T11:54:54;28.80;95.90
16929;DHT22;8581;47.334;11.190;2022-08-01T11:57:26;31.40;94.00
16929;DHT22;8581;47.334;11.190;2022-08-01T11:59:57;33.60;90.00
16929;DHT22;8581;47.334;11.190;2022-08-01T12:02:28;34.10;85.00
16929;DHT22;8581;47.334;11.190;2022-08-01T12:05:12;32.40;87.70
16929;DHT22;8581;47.334;11.190;2022-08-01T12:07:44;31.30;90.20
16929;DHT22;8581;47.334;11.190;2022-08-01T12:10:17;29.90;90.10
16929;DHT22;8581;47.334;11.190;2022-08-01T12:12:51;28.60;92.10
16929;DHT22;8581;47.334;11.190;2022-08-01T12:15:22;28.60;92.20
16929;DHT22;8581;47.334;11.190;2022-08-01T12:17:56;28.00;92.70
16929;DHT22;8581;47.334;11.190;2022-08-01T12:20:30;28.40;93.80
16929;DHT22;8581;47.334;11.190;2022-08-01T12:23:03;29.60;92.00
16929;DHT22;8581;47.334;11.190;2022-08-01T12:25:33;29.80;90.80
16929;DHT22;8581;47.334;11.190;2022-08-01T12:28:06;30.00;90.80
16929;DHT22;8581;47.334;11.190;2022-08-01T12:30:37;30.10;90.20
16929;DHT22;8581;47.334;11.190;2022-08-01T12:33:08;30.50;91.40
16929;DHT22;8581;47.334;11.190;2022-08-01T12:35:40;30.90;90.50
16929;DHT22;8581;47.334;11.190;2022-08-01T12:38:14;29.80;89.90
16929;DHT22;8581;47.334;11.190;2022-08-01T12:40:46;28.50;91.30
16929;DHT22;8581;47.334;11.190;2022-08-01T12:43:18;28.60;92.10
16929;DHT22;8581;47.334;11.190;2022-08-01T12:45:49;30.00;92.80
16929;DHT22;8581;47.334;11.190;2022-08-01T12:48:21;32.00;90.60
16929;DHT22;8581;47.334;11.190;2022-08-01T12:50:52;33.40;85.40
16929;DHT22;8581;47.334;11.190;2022-08-01T12:53:24;34.40;86.30
16929;DHT22;8581;47.334;11.190;2022-08-01T12:55:56;35.50;83.00
16929;DHT22;8581;47.334;11.190;2022-08-01T12:58:31;34.40;81.20
16929;DHT22;8581;47.334;11.190;2022-08-01T13:01:05;34.30;82.60
16929;DHT22;8581;47.334;11.190;2022-08-01T13:03:36;35.70;82.90
16929;DHT22;8581;47.334;11.190;2022-08-01T13:06:10;36.30;85.10
16929;DHT22;8581;47.334;11.190;2022-08-01T13:08:40;36.90;79.80
16929;DHT22;8581;47.334;11.190;2022-08-01T13:11:13;37.30;77.30
16929;DHT22;8581;47.334;11.190;2022-08-01T13:13:45;36.00;76.70
16929;DHT22;8581;47.334;11.190;2022-08-01T13:16:21;34.00;78.50
16929;DHT22;8581;47.334;11.190;2022-08-01T13:18:53;33.10;83.10
16929;DHT22;8581;47.334;11.190;2022-08-01T13:21:25;33.80;83.70
16929;DHT22;8581;47.334;11.190;2022-08-01T13:24:04;34.60;82.40
16929;DHT22;8581;47.334;11.190;2022-08-01T13:26:40;33.50;81.60
16929;DHT22;8581;47.334;11.190;2022-08-01T13:29:13;31.80;85.40
16929;DHT22;8581;47.334;11.190;2022-08-01T13:31:44;30.60;87.10
16929;DHT22;8581;47.334;11.190;2022-08-01T13:34:15;30.30;90.00
16929;DHT22;8581;47.334;11.190;2022-08-01T13:36:47;32.00;88.40
16929;DHT22;8581;47.334;11.190;2022-08-01T13:39:18;34.00;83.80
16929;DHT22;8581;47.334;11.190;2022-08-01T13:41:56;35.50;81.90
16929;DHT22;8581;47.334;11.190;2022-08-01T13:44:28;36.40;78.50
16929;DHT22;8581;47.334;11.190;2022-08-01T13:46:59;37.30;77.10
16929;DHT22;8581;47.334;11.190;2022-08-01T13:49:31;36.80;77.70
16929;DHT22;8581;47.334;11.190;2022-08-01T13:52:03;37.20;78.10
16929;DHT22;8581;47.334;11.190;2022-08-01T13:54:34;37.10;76.80
16929;DHT22;8581;47.334;11.190;2022-08-01T13:57:06;37.30;78.20
16929;DHT22;8581;47.334;11.190;2022-08-01T13:59:38;38.00;76.00
16929;DHT22;8581;47.334;11.190;2022-08-01T14:02:09;38.20;76.10
16929;DHT22;8581;47.334;11.190;2022-08-01T14:04:41;39.00;73.00
16929;DHT22;8581;47.334;11.190;2022-08-01T14:07:12;36.90;74.30
16929;DHT22;8581;47.334;11.190;2022-08-01T14:09:44;35.60;76.50
16929;DHT22;8581;47.334;11.190;2022-08-01T14:12:16;36.20;77.70
16929;DHT22;8581;47.334;11.190;2022-08-01T14:14:47;37.50;76.00
16929;DHT22;8581;47.334;11.190;2022-08-01T14:17:19;38.00;75.10
16929;DHT22;8581;47.334;11.190;2022-08-01T14:19:50;37.30;74.40
16929;DHT22;8581;47.334;11.190;2022-08-01T14:22:22;36.30;76.20
16929;DHT22;8581;47.334;11.190;2022-08-01T14:24:54;36.70;76.40
16929;DHT22;8581;47.334;11.190;2022-08-01T14:27:25;37.30;74.10
16929;DHT22;8581;47.334;11.190;2022-08-01T14:29:57;37.80;73.90
16929;DHT22;8581;47.334;11.190;2022-08-01T14:32:29;38.90;72.90
16929;DHT22;8581;47.334;11.190;2022-08-01T14:35:01;39.30;69.10
16929;DHT22;8581;47.334;11.190;2022-08-01T14:37:32;39.20;71.00
16929;DHT22;8581;47.334;11.190;2022-08-01T14:40:05;39.20;70.70
16929;DHT22;8581;47.334;11.190;2022-08-01T14:42:37;39.10;69.50
16929;DHT22;8581;47.334;11.190;2022-08-01T14:45:09;38.50;70.50
16929;DHT22;8581;47.334;11.190;2022-08-01T14:47:41;38.70;70.60
16929;DHT22;8581;47.334;11.190;2022-08-01T14:50:13;39.30;70.50
16929;DHT22;8581;47.334;11.190;2022-08-01T14:52:44;39.10;69.60
16929;DHT22;8581;47.334;11.190;2022-08-01T14:55:16;39.20;68.80
16929;DHT22;8581;47.334;11.190;2022-08-01T14:57:47;37.00;70.90
16929;DHT22;8581;47.334;11.190;2022-08-01T15:00:19;34.60;73.70
16929;DHT22;8581;47.334;11.190;2022-08-01T15:02:50;32.90;76.90
16929;DHT22;8581;47.334;11.190;2022-08-01T15:05:22;31.60;80.00
16929;DHT22;8581;47.334;11.190;2022-08-01T15:07:54;31.20;82.20
16929;DHT22;8581;47.334;11.190;2022-08-01T15:10:26;32.30;81.50
16929;DHT22;8581;47.334;11.190;2022-08-01T15:12:58;34.00;78.30
16929;DHT22;8581;47.334;11.190;2022-08-01T15:15:29;33.50;76.90
16929;DHT22;8581;47.334;11.190;2022-08-01T15:18:01;31.90;78.60
16929;DHT22;8581;47.334;11.190;2022-08-01T15:20:34;31.10;82.10
16929;DHT22;8581;47.334;11.190;2022-08-01T15:23:05;30.20;83.40
16929;DHT22;8581;47.334;11.190;2022-08-01T15:25:37;30.50;84.30
16929;DHT22;8581;47.334;11.190;2022-08-01T15:28:09;32.10;81.70
16929;DHT22;8581;47.334;11.190;2022-08-01T15:30:41;34.00;79.60
16929;DHT22;8581;47.334;11.190;2022-08-01T15:33:13;34.20;77.90
16929;DHT22;8581;47.334;11.190;2022-08-01T15:35:44;33.50;80.30
16929;DHT22;8581;47.334;11.190;2022-08-01T15:38:16;33.10;78.20
16929;DHT22;8581;47.334;11.190;2022-08-01T15:40:47;32.10;79.60
16929;DHT22;8581;47.334;11.190;2022-08-01T15:43:19;31.40;82.20
16929;DHT22;8581;47.334;11.190;2022-08-01T15:45:51;30.90;82.50
16929;DHT22;8581;47.334;11.190;2022-08-01T15:48:22;31.00;82.40
16929;DHT22;8581;47.334;11.190;2022-08-01T15:50:54;29.80;84.60
16929;DHT22;8581;47.334;11.190;2022-08-01T15:53:25;28.80;87.60
16929;DHT22;8581;47.334;11.190;2022-08-01T15:55:57;28.60;86.90
16929;DHT22;8581;47.334;11.190;2022-08-01T15:58:29;28.20;89.20
16929;DHT22;8581;47.334;11.190;2022-08-01T16:01:00;27.60;90.60
16929;DHT22;8581;47.334;11.190;2022-08-01T16:03:32;27.50;90.10
16929;DHT22;8581;47.334;11.190;2022-08-01T16:06:04;27.00;90.70
16929;DHT22;8581;47.334;11.190;2022-08-01T16:08:35;26.90;91.50